Talkeetna Airport
PATK : now visible

Airfield :











YOU CAN JOIN US ON...

 
LOGIN :

Register | Disclaimer

   EN    FR    IT 

 









Legend :    VFR   Marginal VFR   IFR   Intensive IFR   Very Intensive IFR
Visi :
Ceiling :
>= 8 km
>= 3000ft
5 to 8 km
1000 to 3000 ft
1500m to 5 km
500 to 1000 ft
800 to 1500m
200 to 500 ft
< 800m
< 200 ft
Symbols :   Thunderstorms  Fog  Heavy snow  Heavy precipitations  Wind > 20 kt






- Airport Elevation : 358 ft


PATK - Talkeetna

CURRENT METAR :
  • 252153Z 02015G28KT 10SM FEW110 M14/M27 A2953 RMK AO2 PK WND 02028/2146 SLP010 T11391267

EXPIRED METARs :
  • 252053Z 01013G23KT 10SM CLR M14/M27 A2955 RMK AO2 SLP015 T11391267 58003
  • 251953Z 01011G24KT 10SM CLR M14/M27 A2955 RMK AO2 SLP016 T11441267

TAF PATK
Valid from the 25 at 18:00 until the 26 at 18:00 UTC


251720Z 2518/2618 02014G24KT P6SM FEW100



MET'MAP, your aeronautical weather chart ! - Copyright ORBIFLY December 2007 - Disclaimer

ORBIFLY MET'MAP TEAM :

Programming & Development : Alexandra Zaïnal
Concept & original design : Baudouin d'Aumeries
Assistance for programming : Marc-Olivier Méhu
Technical & hardware support : Manuel Goepfert

Contact : metmap@orbifly.com




SOURCES & CREDITS :

   NOAA       Earth
Advisory